Time;durP1;ratioP1;P1;durP2;ratioP2;P2;SDS_P1;SDS_P2;PMS_P1;PMS_P2;Temp;Humidity;BMP_temperature;BMP_pressure;BME280_temperature;BME280_humidity;BME280_pressure;Samples;Min_cycle;Max_cycle;Signal;HPM_P1;HPM_P2
2022/05/11 00:01:21;;;;;;;10.60;7.80;;;18.20;70.80;;;;;;5076806;28;20669;-80
2022/05/11 00:03:49;;;;;;;10.47;8.50;;;18.20;70.80;;;;;;5076616;28;20454;-79
2022/05/11 00:06:17;;;;;;;10.73;7.70;;;18.20;70.80;;;;;;5070975;28;20462;-80
2022/05/11 00:08:46;;;;;;;11.20;7.63;;;18.20;70.80;;;;;;5074087;28;20511;-80
2022/05/11 00:11:14;;;;;;;12.83;8.07;;;18.10;70.80;;;;;;5073556;28;20459;-80
2022/05/11 00:13:44;;;;;;;11.77;8.03;;;18.10;70.90;;;;;;5070296;28;20467;-80
2022/05/11 00:16:12;;;;;;;12.30;7.33;;;18.10;71.00;;;;;;5073097;28;20470;-80
2022/05/11 00:18:41;;;;;;;9.40;7.13;;;18.10;71.10;;;;;;5073416;28;20466;-80
2022/05/11 00:21:10;;;;;;;12.83;8.13;;;18.10;71.10;;;;;;5070984;28;20450;-80
2022/05/11 00:23:39;;;;;;;9.07;6.80;;;18.10;71.10;;;;;;5065595;28;20994;-80
2022/05/11 00:26:07;;;;;;;10.07;7.80;;;18.10;71.10;;;;;;5069059;28;20462;-80
2022/05/11 00:28:35;;;;;;;12.50;8.37;;;18.20;71.20;;;;;;5075068;28;20465;-80
2022/05/11 00:31:05;;;;;;;10.00;7.67;;;18.20;71.20;;;;;;5072826;28;20585;-80
2022/05/11 00:33:33;;;;;;;11.63;7.50;;;18.20;71.10;;;;;;5071334;28;21057;-80
2022/05/11 00:36:01;;;;;;;10.47;7.80;;;18.20;71.10;;;;;;5073183;28;20522;-79
2022/05/11 00:38:30;;;;;;;9.77;7.27;;;18.20;71.00;;;;;;5069154;28;20513;-78
2022/05/11 00:41:00;;;;;;;12.00;8.10;;;18.10;71.10;;;;;;5078559;28;20466;-78
2022/05/11 00:43:31;;;;;;;9.97;7.17;;;18.10;71.10;;;;;;5066753;28;20474;-78
2022/05/11 00:46:10;;;;;;;12.53;7.53;;;18.10;71.10;;;;;;5069471;28;20502;-79
2022/05/11 00:51:26;;;;;;;10.93;7.40;;;18.10;71.20;;;;;;5069402;28;20468;-79
2022/05/11 00:53:55;;;;;;;10.50;8.43;;;18.10;71.20;;;;;;5085607;28;20469;-78
2022/05/11 00:56:24;;;;;;;10.73;7.77;;;18.10;71.20;;;;;;5069966;28;20521;-79
2022/05/11 00:58:57;;;;;;;11.67;7.90;;;18.10;71.30;;;;;;5067218;28;21218;-79
2022/05/11 01:01:27;;;;;;;9.87;6.73;;;18.10;71.30;;;;;;5058978;28;20496;-79
2022/05/11 01:04:06;;;;;;;10.73;7.57;;;18.20;71.30;;;;;;5071011;28;20620;-78
2022/05/11 01:06:34;;;;;;;12.17;7.97;;;18.20;71.30;;;;;;5072215;28;20496;-79
2022/05/11 01:09:04;;;;;;;10.53;7.40;;;18.20;71.30;;;;;;5085596;28;20535;-78
2022/05/11 01:11:36;;;;;;;12.27;8.47;;;18.20;71.30;;;;;;5068169;28;20461;-79
2022/05/11 01:14:06;;;;;;;9.70;7.50;;;18.20;71.30;;;;;;5083834;28;20470;-79
2022/05/11 01:16:37;;;;;;;10.73;8.30;;;18.10;71.20;;;;;;5071772;28;20477;-78
2022/05/11 01:19:07;;;;;;;9.57;7.43;;;18.10;71.30;;;;;;5061129;28;20512;-78
2022/05/11 01:21:43;;;;;;;9.00;6.70;;;18.10;71.40;;;;;;5069143;28;20466;-78
2022/05/11 01:24:28;;;;;;;12.40;7.40;;;18.10;71.50;;;;;;5069391;28;21083;-79
2022/05/11 01:26:57;;;;;;;11.00;8.10;;;18.10;71.60;;;;;;5069652;28;20450;-79
2022/05/11 01:29:25;;;;;;;12.70;9.13;;;18.10;71.60;;;;;;5060515;28;20481;-78
2022/05/11 01:31:53;;;;;;;10.43;8.03;;;18.20;71.70;;;;;;5067901;28;20485;-78
2022/05/11 01:34:25;;;;;;;10.07;7.73;;;18.20;71.70;;;;;;5069125;28;20500;-78
2022/05/11 01:36:56;;;;;;;10.97;8.10;;;18.20;71.80;;;;;;5071688;28;20548;-79
2022/05/11 01:39:25;;;;;;;17.40;8.50;;;18.20;71.70;;;;;;5069962;28;20497;-78
2022/05/11 01:41:55;;;;;;;11.30;8.50;;;18.20;71.70;;;;;;5071641;28;20495;-79
2022/05/11 01:44:25;;;;;;;11.07;7.90;;;18.20;71.80;;;;;;5070763;28;20450;-78
2022/05/11 01:46:56;;;;;;;10.73;7.67;;;18.20;71.90;;;;;;5070009;28;20486;-78
2022/05/11 01:49:25;;;;;;;10.07;7.73;;;18.10;71.90;;;;;;5068842;28;20716;-78
2022/05/11 01:51:53;;;;;;;11.10;8.60;;;18.20;71.90;;;;;;5071251;28;21023;-78
2022/05/11 01:54:21;;;;;;;12.40;8.33;;;18.20;72.00;;;;;;5070150;28;20466;-78
2022/05/11 01:56:51;;;;;;;12.53;9.10;;;18.20;72.10;;;;;;5068505;28;21077;-79
2022/05/11 01:59:19;;;;;;;11.33;7.70;;;18.20;72.00;;;;;;5069764;28;20529;-78
2022/05/11 02:01:47;;;;;;;11.50;8.20;;;18.20;72.10;;;;;;5068779;28;20490;-78
2022/05/11 02:09:46;;;;;;;11.70;8.40;;;18.20;72.30;;;;;;5086432;28;20458;-79
2022/05/11 02:12:16;;;;;;;12.07;8.87;;;18.30;72.20;;;;;;5070350;28;20541;-78
2022/05/11 02:14:44;;;;;;;12.60;8.80;;;18.20;72.30;;;;;;5071592;28;20466;-78
2022/05/11 02:17:14;;;;;;;11.90;7.97;;;18.30;72.40;;;;;;5069782;28;20486;-78
2022/05/11 02:19:42;;;;;;;15.33;7.57;;;18.30;72.50;;;;;;5064934;28;20467;-79
2022/05/11 02:22:10;;;;;;;9.67;7.40;;;18.30;72.50;;;;;;5067618;28;20484;-79
2022/05/11 02:24:38;;;;;;;9.53;7.30;;;18.40;72.50;;;;;;5068499;28;20462;-79
2022/05/11 02:27:07;;;;;;;10.10;7.30;;;18.40;72.60;;;;;;5081856;28;20466;-78
2022/05/11 02:29:37;;;;;;;10.97;8.23;;;18.40;72.70;;;;;;5070566;28;20454;-79
2022/05/11 02:32:05;;;;;;;12.80;7.90;;;18.50;72.80;;;;;;5069053;28;20593;-79
2022/05/11 02:37:19;;;;;;;11.33;9.03;;;18.60;72.80;;;;;;5070427;28;20559;-79
2022/05/11 02:39:48;;;;;;;9.70;7.00;;;18.70;72.80;;;;;;5070863;28;20462;-78
2022/05/11 02:42:18;;;;;;;9.93;7.33;;;18.80;72.80;;;;;;5071102;28;20576;-80
2022/05/11 02:44:48;;;;;;;9.93;7.23;;;18.80;72.80;;;;;;5066577;28;20526;-79
2022/05/11 02:47:16;;;;;;;12.27;8.20;;;18.90;72.80;;;;;;5070807;28;20494;-80
2022/05/11 02:49:46;;;;;;;10.67;7.57;;;18.90;72.80;;;;;;5066762;28;20473;-78
2022/05/11 02:52:14;;;;;;;11.50;7.73;;;18.90;72.80;;;;;;5069697;28;20488;-78
2022/05/11 02:54:42;;;;;;;9.50;6.63;;;19.00;72.70;;;;;;5065079;28;20496;-78
2022/05/11 02:57:10;;;;;;;9.80;7.20;;;19.00;72.70;;;;;;5069759;28;20537;-79
2022/05/11 02:59:38;;;;;;;9.63;7.47;;;19.00;72.60;;;;;;5071545;28;20462;-78
2022/05/11 03:02:08;;;;;;;10.53;7.90;;;19.10;72.50;;;;;;5069301;28;20478;-79
2022/05/11 03:04:36;;;;;;;11.80;7.83;;;19.10;72.50;;;;;;5071152;28;20540;-79
2022/05/11 03:07:05;;;;;;;10.93;7.07;;;19.10;72.40;;;;;;5072411;28;20525;-78
2022/05/11 03:09:33;;;;;;;9.80;7.00;;;19.10;72.40;;;;;;5071826;28;20485;-78
2022/05/11 03:12:01;;;;;;;10.07;7.20;;;19.10;72.30;;;;;;5071857;28;20496;-78
2022/05/11 03:14:32;;;;;;;9.73;7.43;;;19.10;72.30;;;;;;5085051;28;20484;-77
2022/05/11 03:17:02;;;;;;;8.77;6.60;;;19.10;72.20;;;;;;5066484;28;20481;-77
2022/05/11 03:19:31;;;;;;;9.97;7.00;;;19.10;72.20;;;;;;5065431;28;20457;-79
2022/05/11 03:21:59;;;;;;;12.13;7.30;;;19.10;72.20;;;;;;5087194;28;20475;-79
2022/05/11 03:24:27;;;;;;;10.10;7.10;;;19.10;72.20;;;;;;5073995;28;20454;-78
2022/05/11 03:26:55;;;;;;;10.70;7.23;;;19.10;72.20;;;;;;5073589;28;20466;-80
2022/05/11 03:29:23;;;;;;;13.73;7.80;;;19.10;72.30;;;;;;5075809;28;20470;-79
2022/05/11 03:34:41;;;;;;;11.10;7.73;;;19.10;72.20;;;;;;5054155;28;21178;-79
2022/05/11 03:37:12;;;;;;;17.50;7.57;;;19.10;72.20;;;;;;5084764;28;20471;-79
2022/05/11 03:39:40;;;;;;;10.63;7.80;;;19.00;72.20;;;;;;5074004;28;20458;-79
2022/05/11 03:42:12;;;;;;;9.80;7.30;;;19.00;72.20;;;;;;5074775;28;21336;-79
2022/05/11 03:44:41;;;;;;;10.47;6.73;;;19.00;72.20;;;;;;5071981;28;20459;-78
2022/05/11 03:47:09;;;;;;;10.00;7.30;;;19.00;72.20;;;;;;5071793;28;20497;-79
2022/05/11 03:49:37;;;;;;;9.80;7.40;;;19.00;72.20;;;;;;5070595;28;21125;-79
2022/05/11 03:52:08;;;;;;;8.47;6.57;;;19.00;72.20;;;;;;5068000;28;20478;-79
2022/05/11 03:54:37;;;;;;;9.50;7.20;;;19.00;72.20;;;;;;5072947;28;20480;-78
2022/05/11 03:57:06;;;;;;;11.90;8.40;;;19.00;72.30;;;;;;5067242;28;20462;-80
2022/05/11 03:59:34;;;;;;;11.83;7.30;;;19.00;72.20;;;;;;5069436;28;20994;-79
2022/05/11 04:02:02;;;;;;;9.50;6.57;;;19.00;72.20;;;;;;5074294;28;20474;-78
2022/05/11 04:04:31;;;;;;;9.97;7.47;;;19.00;72.20;;;;;;5066121;28;21168;-79
2022/05/11 04:06:59;;;;;;;11.43;7.43;;;19.00;72.20;;;;;;5068879;28;20480;-79
2022/05/11 04:09:29;;;;;;;10.23;7.20;;;19.00;72.20;;;;;;5068570;28;20538;-79
2022/05/11 04:11:57;;;;;;;9.53;7.00;;;19.00;72.20;;;;;;5071237;28;20478;-78
2022/05/11 04:14:25;;;;;;;10.50;7.27;;;19.00;72.20;;;;;;5069699;28;20493;-80
2022/05/11 04:16:56;;;;;;;11.07;8.07;;;19.00;72.20;;;;;;5071162;28;20553;-78
2022/05/11 04:19:24;;;;;;;10.47;7.50;;;19.00;72.20;;;;;;5063432;28;21005;-79
2022/05/11 04:21:52;;;;;;;16.13;7.97;;;19.00;72.20;;;;;;5088894;28;20486;-78
2022/05/11 04:24:33;;;;;;;10.43;7.83;;;19.00;72.20;;;;;;5085158;28;20813;-79
2022/05/11 04:27:07;;;;;;;11.60;7.83;;;19.00;72.30;;;;;;5070933;28;20841;-78
2022/05/11 04:29:36;;;;;;;9.27;6.50;;;19.00;72.30;;;;;;5072653;28;20877;-78
2022/05/11 04:32:05;;;;;;;9.97;6.97;;;19.00;72.30;;;;;;5073636;28;20679;-79
2022/05/11 04:34:33;;;;;;;9.67;7.43;;;19.00;72.30;;;;;;5086204;28;20455;-78
2022/05/11 04:37:01;;;;;;;9.87;7.20;;;19.00;72.30;;;;;;5065088;28;20477;-78
2022/05/11 04:39:31;;;;;;;8.63;6.73;;;19.10;72.30;;;;;;5064917;28;20504;-78
2022/05/11 04:41:59;;;;;;;11.70;8.07;;;19.10;72.20;;;;;;5071867;28;20502;-79
2022/05/11 04:44:28;;;;;;;11.27;7.73;;;19.10;72.20;;;;;;5070623;28;21221;-78
2022/05/11 04:47:05;;;;;;;9.80;7.50;;;19.10;72.20;;;;;;5068346;28;20486;-79
2022/05/11 04:49:33;;;;;;;9.93;7.43;;;19.10;72.20;;;;;;5066688;28;20462;-79
2022/05/11 04:52:07;;;;;;;10.60;8.20;;;19.10;72.30;;;;;;5068626;28;20500;-79
2022/05/11 04:54:38;;;;;;;13.27;8.03;;;19.10;72.30;;;;;;5067597;28;20969;-79
2022/05/11 04:57:07;;;;;;;12.30;8.23;;;19.10;72.30;;;;;;5072242;28;20597;-79
2022/05/11 04:59:39;;;;;;;11.90;7.90;;;19.10;72.30;;;;;;5087793;28;20458;-78
2022/05/11 05:02:13;;;;;;;11.30;7.97;;;19.10;72.30;;;;;;5068070;28;20466;-78
2022/05/11 05:04:41;;;;;;;9.57;7.23;;;19.10;72.30;;;;;;5071684;28;20797;-77
2022/05/11 05:07:10;;;;;;;11.60;8.13;;;19.20;72.40;;;;;;5086616;28;20459;-78
2022/05/11 05:09:39;;;;;;;10.17;7.30;;;19.10;72.50;;;;;;5072488;28;20462;-79
2022/05/11 05:12:08;;;;;;;11.47;7.83;;;19.20;72.50;;;;;;5069115;28;20481;-79
2022/05/11 05:14:36;;;;;;;12.83;7.70;;;19.20;72.60;;;;;;5074774;28;20508;-78
2022/05/11 05:17:07;;;;;;;11.73;8.37;;;19.30;72.80;;;;;;5073352;28;20493;-78
2022/05/11 05:19:37;;;;;;;11.00;7.30;;;19.50;72.90;;;;;;5075368;28;20464;-78
2022/05/11 05:22:05;;;;;;;9.47;6.50;;;19.60;72.70;;;;;;5073252;28;20513;-78
2022/05/11 05:24:34;;;;;;;11.73;8.43;;;19.80;72.60;;;;;;5071238;28;20462;-79
2022/05/11 05:27:04;;;;;;;9.67;6.50;;;20.00;72.30;;;;;;5073408;28;20461;-78
2022/05/11 05:32:19;;;;;;;9.53;7.13;;;21.00;73.30;;;;;;5063848;28;20487;-78
2022/05/11 05:34:47;;;;;;;11.57;6.93;;;22.30;72.50;;;;;;5071699;28;20468;-79
2022/05/11 05:37:17;;;;;;;10.63;8.00;;;23.60;71.00;;;;;;5068797;28;20467;-80
2022/05/11 05:39:46;;;;;;;10.67;8.03;;;24.90;69.20;;;;;;5072055;28;20455;-80
2022/05/11 05:42:19;;;;;;;9.87;7.30;;;26.20;67.00;;;;;;5071606;28;20509;-78
2022/05/11 05:44:48;;;;;;;10.20;7.00;;;27.20;65.10;;;;;;5071557;28;20473;-79
2022/05/11 05:47:16;;;;;;;8.83;6.40;;;27.70;63.70;;;;;;5066827;28;20482;-79
2022/05/11 05:49:45;;;;;;;10.33;7.60;;;28.10;62.40;;;;;;5084366;28;20463;-79
2022/05/11 05:52:17;;;;;;;9.57;7.17;;;28.10;60.80;;;;;;5071377;28;20569;-79
2022/05/11 05:54:45;;;;;;;10.37;6.87;;;27.80;61.00;;;;;;5070817;28;20465;-80
2022/05/11 05:57:14;;;;;;;9.00;7.27;;;28.10;61.30;;;;;;5067200;28;20481;-79
2022/05/11 05:59:43;;;;;;;10.10;6.80;;;28.90;60.70;;;;;;5061305;28;20464;-79
2022/05/11 06:02:13;;;;;;;10.20;7.37;;;29.70;59.80;;;;;;5060850;28;21357;-78
2022/05/11 06:04:44;;;;;;;9.80;7.00;;;30.70;58.40;;;;;;5065156;28;21126;-78
2022/05/11 06:07:13;;;;;;;10.37;6.90;;;31.50;56.80;;;;;;5065256;28;20457;-78
2022/05/11 06:09:41;;;;;;;9.00;6.57;;;31.90;54.60;;;;;;5067395;28;20465;-78
2022/05/11 06:12:12;;;;;;;10.67;6.80;;;31.10;53.00;;;;;;5065750;28;21043;-78
2022/05/11 06:14:41;;;;;;;8.67;6.50;;;29.70;53.10;;;;;;5057276;28;20499;-77
2022/05/11 06:17:15;;;;;;;9.20;6.87;;;28.10;53.80;;;;;;5065720;28;21348;-78
2022/05/11 06:19:43;;;;;;;10.80;7.30;;;26.80;55.00;;;;;;5064560;28;20531;-78
2022/05/11 06:22:11;;;;;;;10.27;6.90;;;25.70;56.00;;;;;;5064674;28;20589;-78
2022/05/11 06:24:39;;;;;;;12.13;6.00;;;24.80;57.20;;;;;;5067059;28;20445;-78
2022/05/11 06:27:14;;;;;;;9.37;7.20;;;24.10;58.30;;;;;;5064504;28;20488;-78
2022/05/11 06:29:43;;;;;;;8.90;6.77;;;23.50;59.00;;;;;;5065673;28;21230;-78
2022/05/11 06:32:11;;;;;;;10.17;7.47;;;23.00;60.00;;;;;;5062305;28;20494;-78
2022/05/11 06:34:40;;;;;;;9.60;7.27;;;22.70;60.70;;;;;;5065926;28;21031;-77
2022/05/11 06:37:08;;;;;;;9.17;6.07;;;22.40;61.40;;;;;;5064267;28;20496;-78
2022/05/11 06:39:37;;;;;;;9.87;6.37;;;22.20;61.90;;;;;;5067254;28;20464;-78
2022/05/11 06:42:07;;;;;;;8.00;5.57;;;22.10;62.30;;;;;;5063417;28;20486;-77
2022/05/11 06:44:36;;;;;;;9.70;6.50;;;22.10;62.90;;;;;;5065327;28;20451;-78
2022/05/11 06:47:04;;;;;;;10.50;6.63;;;22.00;63.10;;;;;;5069263;28;21050;-77
2022/05/11 06:49:33;;;;;;;9.57;6.67;;;21.90;63.40;;;;;;5066938;28;20538;-78
2022/05/11 06:52:02;;;;;;;12.33;5.70;;;21.90;63.80;;;;;;5063683;28;20515;-77
2022/05/11 07:00:04;;;;;;;9.33;5.53;;;21.80;64.60;;;;;;5070442;28;20954;-78
2022/05/11 07:02:34;;;;;;;9.07;6.23;;;21.80;65.00;;;;;;5069390;28;20474;-77
2022/05/11 07:05:02;;;;;;;8.20;5.70;;;21.70;65.20;;;;;;5070231;28;20465;-78
2022/05/11 07:07:31;;;;;;;9.00;6.50;;;21.70;65.40;;;;;;5071313;28;20446;-79
2022/05/11 07:10:00;;;;;;;8.13;5.90;;;21.70;65.70;;;;;;5068096;28;20459;-78
2022/05/11 07:12:32;;;;;;;9.73;6.23;;;21.70;65.90;;;;;;5070925;28;20495;-78
2022/05/11 07:15:00;;;;;;;8.90;6.20;;;21.70;66.00;;;;;;5069576;28;20458;-78
2022/05/11 07:17:31;;;;;;;9.67;6.13;;;21.70;66.40;;;;;;5058368;28;20482;-77
2022/05/11 07:20:01;;;;;;;7.33;4.97;;;21.80;66.40;;;;;;5069073;28;20462;-78
2022/05/11 07:22:30;;;;;;;7.73;6.00;;;21.80;66.50;;;;;;5069200;28;20901;-77
2022/05/11 07:24:58;;;;;;;9.20;5.57;;;21.80;66.70;;;;;;5068777;28;20976;-77
2022/05/11 07:27:27;;;;;;;7.90;5.47;;;21.80;66.80;;;;;;5066422;28;20475;-78
2022/05/11 07:29:56;;;;;;;8.47;5.47;;;21.80;66.90;;;;;;5068969;28;20458;-78
2022/05/11 07:32:27;;;;;;;8.80;5.53;;;21.90;67.10;;;;;;5064607;28;20859;-78
2022/05/11 07:34:55;;;;;;;7.60;5.40;;;21.90;67.10;;;;;;5066831;28;20469;-78
2022/05/11 07:37:23;;;;;;;7.37;4.80;;;22.00;67.20;;;;;;5068698;28;20474;-77
2022/05/11 07:39:55;;;;;;;7.20;4.70;;;22.00;67.30;;;;;;5068036;28;20446;-77
2022/05/11 07:42:23;;;;;;;10.00;5.10;;;22.00;67.40;;;;;;5066268;28;20522;-78
2022/05/11 07:44:51;;;;;;;7.93;5.23;;;22.10;67.40;;;;;;5069453;28;20463;-78
2022/05/11 07:47:20;;;;;;;7.13;5.43;;;22.10;67.40;;;;;;5069687;28;20474;-77
2022/05/11 07:49:48;;;;;;;7.13;4.77;;;22.10;67.40;;;;;;5067134;28;20470;-78
2022/05/11 07:52:16;;;;;;;8.87;5.03;;;22.10;67.40;;;;;;5070863;28;20492;-77
2022/05/11 07:54:44;;;;;;;7.47;5.40;;;22.10;67.40;;;;;;5066522;28;20967;-78
2022/05/11 08:00:00;;;;;;;7.60;5.40;;;22.20;67.50;;;;;;5066411;28;20468;-78
2022/05/11 08:02:33;;;;;;;7.57;4.87;;;22.20;67.50;;;;;;5066419;28;20473;-77
2022/05/11 08:05:04;;;;;;;7.67;5.30;;;22.30;67.50;;;;;;5067048;28;20468;-78
2022/05/11 08:07:39;;;;;;;7.20;4.90;;;22.30;67.50;;;;;;5066687;28;20454;-78
2022/05/11 08:10:12;;;;;;;6.90;5.20;;;22.30;67.40;;;;;;5068510;28;20560;-78
2022/05/11 08:12:42;;;;;;;9.10;5.20;;;22.40;67.40;;;;;;5069050;28;20504;-78
2022/05/11 08:15:11;;;;;;;7.40;4.87;;;22.40;67.30;;;;;;5065135;28;21231;-78
2022/05/11 08:17:41;;;;;;;7.43;4.93;;;22.50;67.10;;;;;;5069702;28;20471;-78
2022/05/11 08:20:14;;;;;;;6.20;4.17;;;22.50;67.00;;;;;;5068256;28;20459;-78
2022/05/11 08:22:42;;;;;;;9.00;5.40;;;22.50;66.90;;;;;;5080633;28;20486;-78
2022/05/11 08:25:11;;;;;;;8.47;4.97;;;22.60;67.00;;;;;;5066148;28;20458;-79
2022/05/11 08:27:39;;;;;;;8.77;5.13;;;22.60;67.20;;;;;;5064383;28;20447;-79
2022/05/11 08:36:06;;;;;;;8.33;4.70;;;22.70;67.00;;;;;;5068345;28;20714;-80
2022/05/11 08:38:37;;;;;;;7.57;4.40;;;22.70;66.90;;;;;;5066799;28;20497;-80
2022/05/11 08:41:19;;;;;;;7.77;5.47;;;22.70;66.90;;;;;;5081475;28;20478;-79
2022/05/11 08:43:49;;;;;;;8.77;4.87;;;22.80;66.80;;;;;;5085940;28;20489;-80
2022/05/11 08:46:35;;;;;;;7.00;4.70;;;22.80;66.60;;;;;;5070026;28;20620;-79
2022/05/11 08:49:06;;;;;;;7.40;4.20;;;22.90;66.50;;;;;;5067207;28;20885;-80
2022/05/11 08:51:41;;;;;;;7.30;5.20;;;22.90;66.50;;;;;;5068772;28;20458;-79
2022/05/11 08:54:15;;;;;;;8.33;4.80;;;22.90;66.40;;;;;;5070160;28;20453;-79
2022/05/11 08:56:46;;;;;;;7.43;4.80;;;23.00;66.30;;;;;;5067257;28;20446;-79
2022/05/11 08:59:19;;;;;;;7.70;5.33;;;23.00;66.30;;;;;;5082747;28;20481;-80
2022/05/11 09:01:51;;;;;;;7.10;5.33;;;23.00;66.20;;;;;;5067558;28;20501;-79
2022/05/11 09:04:24;;;;;;;6.63;4.50;;;23.10;66.20;;;;;;5066671;28;20455;-80
2022/05/11 09:06:52;;;;;;;8.00;5.00;;;23.10;66.00;;;;;;5063527;28;20458;-79
2022/05/11 09:09:20;;;;;;;7.50;4.83;;;23.10;66.20;;;;;;5064937;28;20457;-79
2022/05/11 09:11:54;;;;;;;8.10;5.23;;;23.10;66.20;;;;;;5060456;28;20479;-79
2022/05/11 09:14:29;;;;;;;6.83;4.73;;;23.10;66.20;;;;;;5065475;28;20466;-79
2022/05/11 09:16:59;;;;;;;7.83;4.80;;;23.10;66.20;;;;;;5067721;28;20477;-79
2022/05/11 09:19:30;;;;;;;8.23;5.67;;;23.10;66.20;;;;;;5057428;28;20477;-79
2022/05/11 09:22:07;;;;;;;8.03;4.83;;;23.10;66.00;;;;;;5065941;28;20545;-79
2022/05/11 09:24:44;;;;;;;7.50;5.37;;;23.20;66.20;;;;;;5066967;28;20453;-79
2022/05/11 09:27:23;;;;;;;9.63;4.47;;;23.20;66.20;;;;;;5063963;28;20557;-79
2022/05/11 09:29:59;;;;;;;7.60;5.10;;;23.20;66.20;;;;;;5081853;28;20465;-79
2022/05/11 09:32:35;;;;;;;7.23;4.40;;;23.30;65.90;;;;;;5067290;28;20537;-79
2022/05/11 09:35:22;;;;;;;9.10;5.10;;;23.30;65.90;;;;;;5067186;28;20453;-79
2022/05/11 09:38:01;;;;;;;8.43;4.60;;;23.30;65.70;;;;;;5063906;28;20970;-79
2022/05/11 09:40:31;;;;;;;6.90;4.40;;;23.40;65.60;;;;;;5060168;28;20472;-79
2022/05/11 09:43:02;;;;;;;6.33;3.93;;;23.40;65.60;;;;;;5067174;28;20501;-79
2022/05/11 09:45:45;;;;;;;6.97;4.80;;;23.50;65.50;;;;;;5057283;28;20553;-79
2022/05/11 09:48:20;;;;;;;7.03;4.63;;;23.50;65.40;;;;;;5068084;28;20533;-80
2022/05/11 09:50:52;;;;;;;7.17;4.60;;;23.60;65.40;;;;;;5067238;28;20488;-79
2022/05/11 09:53:31;;;;;;;7.53;5.13;;;23.60;65.20;;;;;;5057045;28;20529;-79
2022/05/11 09:56:18;;;;;;;10.43;5.00;;;23.60;65.10;;;;;;5068828;28;20824;-79
2022/05/11 09:58:47;;;;;;;6.20;4.10;;;23.80;65.40;;;;;;5066441;28;20510;-80
2022/05/11 10:01:17;;;;;;;5.97;4.10;;;23.90;65.00;;;;;;5065220;28;20474;-80
2022/05/11 10:03:53;;;;;;;6.80;4.33;;;24.00;64.90;;;;;;5062009;28;20474;-81
2022/05/11 10:06:47;;;;;;;6.57;4.70;;;24.10;64.70;;;;;;5071309;28;20469;-79
2022/05/11 10:09:17;;;;;;;6.10;4.30;;;24.20;64.30;;;;;;5063845;28;20466;-78
2022/05/11 10:11:50;;;;;;;7.27;5.07;;;24.30;64.10;;;;;;5062407;28;20464;-81
2022/05/11 10:22:53;;;;;;;6.90;4.23;;;24.50;63.20;;;;;;5074407;28;20475;-80
2022/05/11 10:25:24;;;;;;;6.50;3.87;;;24.60;62.70;;;;;;5082156;28;20463;-81
2022/05/11 10:27:59;;;;;;;6.60;4.33;;;24.50;62.30;;;;;;5069840;28;20824;-82
2022/05/11 10:30:35;;;;;;;6.37;3.90;;;24.60;62.20;;;;;;5074332;28;20462;-81
2022/05/11 10:33:17;;;;;;;10.27;4.23;;;24.60;61.70;;;;;;5068926;28;20573;-82
2022/05/11 10:35:53;;;;;;;6.27;3.83;;;24.60;61.30;;;;;;5068714;28;20451;-81
2022/05/11 10:38:34;;;;;;;5.53;3.40;;;24.60;60.60;;;;;;5084413;28;20894;-81
2022/05/11 10:41:13;;;;;;;6.70;3.90;;;24.60;60.50;;;;;;5077576;28;20682;-80
2022/05/11 10:43:54;;;;;;;7.13;4.50;;;24.60;60.40;;;;;;5067148;28;20913;-78
2022/05/11 10:46:32;;;;;;;6.40;3.77;;;24.60;60.40;;;;;;5072507;28;20473;-77
2022/05/11 10:49:27;;;;;;;5.90;3.67;;;24.60;60.30;;;;;;5068759;28;20459;-77
2022/05/11 10:52:12;;;;;;;5.70;4.10;;;24.70;60.30;;;;;;5050595;28;20848;-79
2022/05/11 10:54:48;;;;;;;9.30;4.33;;;24.70;60.40;;;;;;5071741;28;20926;-79
2022/05/11 10:57:26;;;;;;;6.47;3.80;;;24.80;60.10;;;;;;5070832;28;20462;-79
2022/05/11 11:00:06;;;;;;;7.50;4.07;;;24.80;60.10;;;;;;5083979;28;20577;-77
2022/05/11 11:03:03;;;;;;;6.07;4.27;;;24.80;60.30;;;;;;5067103;28;20561;-82
2022/05/11 11:05:45;;;;;;;6.17;3.90;;;24.90;60.50;;;;;;5079823;28;20454;-81
2022/05/11 11:08:20;;;;;;;8.40;5.20;;;25.00;59.80;;;;;;5067321;28;20521;-79
2022/05/11 11:10:54;;;;;;;7.60;4.70;;;25.00;60.00;;;;;;5067693;28;21270;-82
2022/05/11 11:13:39;;;;;;;6.33;4.27;;;25.00;60.10;;;;;;5065955;28;20918;-80
2022/05/11 11:16:12;;;;;;;7.03;4.27;;;25.10;60.10;;;;;;5063951;28;20516;-79
2022/05/11 11:18:43;;;;;;;6.43;4.13;;;25.10;60.20;;;;;;5064056;28;21254;-79
2022/05/11 11:21:15;;;;;;;6.63;4.20;;;25.10;60.40;;;;;;5067637;28;20469;-80
2022/05/11 11:23:47;;;;;;;6.03;4.30;;;25.20;60.60;;;;;;5068766;28;20895;-81
2022/05/11 11:26:48;;;;;;;6.93;4.30;;;25.20;60.40;;;;;;5069796;28;20468;-78
2022/05/11 11:29:21;;;;;;;5.60;4.00;;;25.10;60.00;;;;;;5068044;28;20445;-81
2022/05/11 11:32:07;;;;;;;6.17;3.73;;;25.10;59.90;;;;;;5066594;28;20475;-80
2022/05/11 11:34:38;;;;;;;6.17;4.00;;;25.10;59.90;;;;;;5066664;28;20470;-78
2022/05/11 11:37:39;;;;;;;6.80;3.60;;;25.10;60.00;;;;;;5065434;28;20847;-79
2022/05/11 11:40:24;;;;;;;6.30;4.00;;;25.10;59.70;;;;;;5067576;28;20521;-81
2022/05/11 11:42:52;;;;;;;5.70;3.50;;;25.20;59.00;;;;;;5067693;28;20509;-78
2022/05/11 11:45:59;;;;;;;5.60;3.20;;;25.20;59.10;;;;;;5064509;28;20460;-77
2022/05/11 11:48:27;;;;;;;6.07;3.70;;;25.30;59.10;;;;;;5063801;28;20466;-79
2022/05/11 11:50:59;;;;;;;8.23;4.47;;;25.40;59.10;;;;;;5067113;28;21077;-78
2022/05/11 11:53:33;;;;;;;8.33;4.37;;;25.40;59.00;;;;;;5070439;28;21012;-77
2022/05/11 11:56:35;;;;;;;6.50;4.07;;;25.40;59.00;;;;;;5063940;28;20469;-77
2022/05/11 11:59:13;;;;;;;6.27;3.87;;;25.50;58.60;;;;;;5080751;28;20466;-79
2022/05/11 12:01:45;;;;;;;7.13;4.40;;;25.50;59.10;;;;;;5072201;28;20579;-79
2022/05/11 12:04:19;;;;;;;8.10;4.27;;;25.60;59.00;;;;;;5069852;28;20459;-79
2022/05/11 12:15:30;;;;;;;8.20;4.17;;;25.80;58.00;;;;;;5012120;28;20479;-78
2022/05/11 12:18:00;;;;;;;7.50;3.80;;;25.80;58.40;;;;;;5006854;28;21430;-79
2022/05/11 12:20:42;;;;;;;5.97;3.00;;;25.90;58.20;;;;;;5045345;28;20488;-79
2022/05/11 12:23:21;;;;;;;6.43;3.80;;;25.90;57.40;;;;;;5087183;28;21085;-79
2022/05/11 12:25:55;;;;;;;9.40;3.87;;;25.90;58.00;;;;;;5077354;28;20494;-79
2022/05/11 12:28:28;;;;;;;6.60;4.17;;;26.00;57.90;;;;;;5079476;28;21249;-79
2022/05/11 12:30:57;;;;;;;7.43;4.10;;;25.90;58.00;;;;;;5078986;28;21111;-79
2022/05/11 12:33:34;;;;;;;6.10;3.70;;;26.00;57.90;;;;;;5083031;28;20485;-80
2022/05/11 12:36:04;;;;;;;6.30;3.67;;;26.00;57.70;;;;;;5074029;28;20467;-78
2022/05/11 12:38:34;;;;;;;7.77;4.07;;;26.00;57.60;;;;;;5089196;28;20555;-79
2022/05/11 12:41:14;;;;;;;6.20;3.80;;;26.00;57.50;;;;;;5069632;28;20488;-79
2022/05/11 12:43:53;;;;;;;6.90;4.40;;;26.10;57.50;;;;;;5069892;28;20485;-81
2022/05/11 12:46:21;;;;;;;6.47;4.33;;;26.10;57.30;;;;;;5068002;28;20528;-80
2022/05/11 12:48:54;;;;;;;7.83;4.13;;;26.10;57.30;;;;;;5065313;28;20555;-79
2022/05/11 12:51:29;;;;;;;6.87;4.00;;;26.10;57.50;;;;;;5066092;28;20443;-81
2022/05/11 12:54:00;;;;;;;7.10;4.23;;;26.20;57.60;;;;;;5069558;28;20457;-81
2022/05/11 12:56:30;;;;;;;6.13;3.90;;;26.20;57.50;;;;;;5064615;28;20463;-80
2022/05/11 12:59:04;;;;;;;6.00;4.10;;;26.20;57.20;;;;;;5080228;28;20457;-80
2022/05/11 13:01:35;;;;;;;7.00;4.20;;;26.30;56.70;;;;;;5074254;28;20477;-78
2022/05/11 13:04:17;;;;;;;8.13;4.07;;;26.30;56.80;;;;;;5073915;28;20485;-79
2022/05/11 13:06:49;;;;;;;6.97;4.20;;;26.30;56.60;;;;;;5067691;28;20460;-77
2022/05/11 13:09:20;;;;;;;6.57;3.83;;;26.30;56.40;;;;;;5066857;28;20468;-77
2022/05/11 13:11:49;;;;;;;8.60;4.13;;;26.30;56.30;;;;;;5067069;28;20469;-79
2022/05/11 13:14:20;;;;;;;6.83;4.43;;;26.30;56.30;;;;;;5065823;28;20460;-78
2022/05/11 13:16:51;;;;;;;7.63;4.10;;;26.30;56.50;;;;;;5087064;28;20469;-78
2022/05/11 13:19:25;;;;;;;6.63;4.30;;;26.40;56.40;;;;;;5072919;28;21041;-78
2022/05/11 13:21:56;;;;;;;6.70;4.43;;;26.40;56.20;;;;;;5072276;28;20506;-78
2022/05/11 13:24:38;;;;;;;11.80;4.50;;;26.40;55.70;;;;;;5068064;28;21201;-79
2022/05/11 13:27:32;;;;;;;6.00;4.03;;;26.50;55.30;;;;;;5065374;28;20456;-79
2022/05/11 13:30:19;;;;;;;6.17;3.83;;;26.50;55.00;;;;;;5083152;28;20505;-78
2022/05/11 13:32:50;;;;;;;6.33;3.70;;;26.50;55.00;;;;;;5068047;28;20484;-77
2022/05/11 13:35:28;;;;;;;6.87;4.40;;;26.50;55.20;;;;;;5065967;28;20457;-79
2022/05/11 13:38:05;;;;;;;7.30;3.87;;;26.50;55.30;;;;;;5068930;28;20463;-78
2022/05/11 13:40:36;;;;;;;9.20;4.90;;;26.50;55.40;;;;;;5065843;28;20477;-78
2022/05/11 13:43:17;;;;;;;6.80;4.50;;;26.50;55.40;;;;;;5068621;28;21012;-78
2022/05/11 13:45:57;;;;;;;7.37;4.30;;;26.50;55.50;;;;;;5070647;28;21107;-77
2022/05/11 13:48:28;;;;;;;7.87;4.50;;;26.50;55.60;;;;;;5068525;28;20478;-77
2022/05/11 13:51:08;;;;;;;6.70;4.40;;;26.60;55.70;;;;;;5070768;28;20444;-79
2022/05/11 13:53:36;;;;;;;7.63;5.23;;;26.60;56.00;;;;;;5070605;28;20476;-77
2022/05/11 13:56:10;;;;;;;8.40;4.63;;;26.60;56.20;;;;;;5068602;28;20461;-78